createdAt,value
2018-09-17T00:00:27.441Z,17.90
2018-09-17T00:03:02.621Z,17.90
2018-09-17T00:05:36.814Z,17.90
2018-09-17T00:08:11.645Z,17.90
2018-09-17T00:10:46.664Z,17.90
2018-09-17T00:13:21.021Z,17.90
2018-09-17T00:15:55.883Z,17.80
2018-09-17T00:18:30.632Z,17.90
2018-09-17T00:21:05.550Z,17.80
2018-09-17T00:23:40.151Z,17.80
2018-09-17T00:26:14.952Z,17.80
2018-09-17T00:28:49.523Z,17.80
2018-09-17T00:31:24.287Z,17.80
2018-09-17T00:33:58.984Z,17.80
2018-09-17T00:36:33.973Z,17.80
2018-09-17T00:39:10.944Z,17.80
2018-09-17T00:41:46.062Z,17.80
2018-09-17T00:44:20.477Z,17.80
2018-09-17T00:46:55.032Z,17.70
2018-09-17T00:49:29.648Z,17.80
2018-09-17T00:52:04.380Z,17.80
2018-09-17T00:54:39.148Z,17.70
2018-09-17T00:57:13.886Z,17.80
2018-09-17T00:59:48.473Z,17.80
2018-09-17T01:02:23.080Z,17.70
2018-09-17T01:04:57.686Z,17.80
2018-09-17T01:07:32.845Z,17.70
2018-09-17T01:10:07.176Z,17.70
2018-09-17T01:12:42.636Z,17.70
2018-09-17T01:15:17.432Z,17.70
2018-09-17T01:17:52.080Z,17.70
2018-09-17T01:20:27.019Z,17.60
2018-09-17T01:23:01.561Z,17.60
2018-09-17T01:25:37.303Z,17.60
2018-09-17T01:28:11.966Z,17.60
2018-09-17T01:30:46.863Z,17.60
2018-09-17T01:33:21.591Z,17.60
2018-09-17T01:35:56.653Z,17.60
2018-09-17T01:38:31.500Z,17.60
2018-09-17T01:41:05.843Z,17.50
2018-09-17T01:43:40.441Z,17.50
2018-09-17T01:46:14.794Z,17.50
2018-09-17T01:48:49.747Z,17.50
2018-09-17T01:51:24.254Z,17.40
2018-09-17T01:53:59.078Z,17.40
2018-09-17T01:56:33.649Z,17.40
2018-09-17T01:59:08.258Z,17.40
2018-09-17T02:01:42.971Z,17.30
2018-09-17T02:04:17.675Z,17.20
2018-09-17T02:06:52.437Z,17.20
2018-09-17T02:09:26.984Z,17.20
2018-09-17T02:12:01.893Z,17.20
2018-09-17T02:14:36.249Z,17.10
2018-09-17T02:17:10.978Z,17.10
2018-09-17T02:19:46.019Z,17.00
2018-09-17T02:22:20.322Z,17.00
2018-09-17T02:24:54.906Z,16.90
2018-09-17T02:27:29.558Z,16.90
2018-09-17T02:30:04.535Z,16.90
2018-09-17T02:32:39.248Z,16.80
2018-09-17T02:35:13.902Z,16.80
2018-09-17T02:37:48.860Z,16.70
2018-09-17T02:40:23.120Z,16.70
2018-09-17T02:42:57.777Z,16.70
2018-09-17T02:45:33.013Z,16.60
2018-09-17T02:48:07.465Z,16.60
2018-09-17T02:50:42.164Z,16.60
2018-09-17T02:53:16.982Z,16.60
2018-09-17T02:55:51.485Z,16.60
2018-09-17T02:58:26.387Z,16.50
2018-09-17T03:01:01.836Z,16.50
2018-09-17T03:03:36.450Z,16.50
2018-09-17T03:06:11.237Z,16.40
2018-09-17T03:08:46.043Z,16.40
2018-09-17T03:11:20.793Z,16.40
2018-09-17T03:13:55.237Z,16.40
2018-09-17T03:16:29.941Z,16.40
2018-09-17T03:19:04.965Z,16.30
2018-09-17T03:21:39.260Z,16.30
2018-09-17T03:24:14.250Z,16.30
2018-09-17T03:26:48.558Z,16.20
2018-09-17T03:29:23.354Z,16.20
2018-09-17T03:31:57.841Z,16.20
2018-09-17T03:34:32.660Z,16.10
2018-09-17T03:37:07.365Z,16.20
2018-09-17T03:39:41.924Z,16.10
2018-09-17T03:42:16.781Z,16.10
2018-09-17T03:44:51.488Z,16.10
2018-09-17T03:47:26.820Z,16.10
2018-09-17T03:50:01.018Z,16.10
2018-09-17T03:52:35.788Z,16.00
2018-09-17T03:55:10.404Z,16.00
2018-09-17T03:57:45.888Z,16.00
2018-09-17T04:00:20.984Z,16.00
2018-09-17T04:02:55.724Z,15.90
2018-09-17T04:05:30.300Z,15.90
2018-09-17T04:08:04.816Z,15.90
2018-09-17T04:10:39.429Z,15.90
2018-09-17T04:13:14.068Z,15.90
2018-09-17T04:15:48.720Z,15.80
2018-09-17T04:18:23.459Z,15.80
2018-09-17T04:20:58.385Z,15.80
2018-09-17T04:23:37.280Z,15.80
2018-09-17T04:26:12.793Z,15.80
2018-09-17T04:28:47.556Z,15.90
2018-09-17T04:31:21.909Z,16.00
2018-09-17T04:33:56.499Z,16.00
2018-09-17T04:36:31.229Z,16.10
2018-09-17T04:39:08.899Z,16.10
2018-09-17T04:41:44.140Z,16.10
2018-09-17T04:44:19.277Z,16.20
2018-09-17T04:46:53.864Z,16.10
2018-09-17T04:49:28.660Z,16.10
2018-09-17T04:52:03.330Z,16.00
2018-09-17T04:54:38.161Z,16.00
2018-09-17T04:57:12.496Z,16.00
2018-09-17T04:59:47.491Z,15.90
2018-09-17T05:02:21.867Z,15.80
2018-09-17T05:04:56.866Z,15.80
2018-09-17T05:07:31.072Z,15.80
2018-09-17T05:10:06.564Z,15.80
2018-09-17T05:12:40.953Z,15.70
2018-09-17T05:15:15.764Z,15.70
2018-09-17T05:17:50.645Z,15.70
2018-09-17T05:20:25.753Z,15.70
2018-09-17T05:23:00.484Z,15.70
2018-09-17T05:25:35.270Z,15.70
2018-09-17T05:28:09.813Z,15.70
2018-09-17T05:30:44.397Z,15.80
2018-09-17T05:33:19.394Z,15.80
2018-09-17T05:35:54.494Z,15.80
2018-09-17T05:38:29.340Z,15.90
2018-09-17T05:41:03.989Z,15.90
2018-09-17T05:43:38.642Z,16.00
2018-09-17T05:46:13.369Z,16.00
2018-09-17T05:48:48.666Z,16.20
2018-09-17T05:51:24.482Z,16.30
2018-09-17T05:53:59.489Z,16.30
2018-09-17T05:56:34.226Z,16.50
2018-09-17T05:59:08.682Z,16.60
2018-09-17T06:01:43.712Z,16.60
2018-09-17T06:04:18.176Z,16.70
2018-09-17T06:06:52.942Z,16.70
2018-09-17T06:09:27.660Z,16.80
2018-09-17T06:12:02.793Z,16.80
2018-09-17T06:14:37.155Z,16.90
2018-09-17T06:17:11.930Z,16.90
2018-09-17T06:19:46.769Z,16.90
2018-09-17T06:22:21.369Z,17.00
2018-09-17T06:24:55.956Z,17.20
2018-09-17T06:27:30.755Z,17.40
2018-09-17T06:30:06.407Z,17.70
2018-09-17T06:32:41.328Z,18.00
2018-09-17T06:35:16.088Z,18.30
2018-09-17T06:37:50.708Z,18.50
2018-09-17T06:40:25.296Z,18.60
2018-09-17T06:43:00.252Z,18.60
2018-09-17T06:45:34.868Z,18.80
2018-09-17T06:48:09.622Z,18.90
2018-09-17T06:50:44.760Z,19.00
2018-09-17T06:53:19.060Z,19.20
2018-09-17T06:55:53.693Z,19.40
2018-09-17T06:58:28.413Z,19.60
2018-09-17T07:01:03.337Z,19.80
2018-09-17T07:03:38.035Z,19.90
2018-09-17T07:06:13.029Z,20.20
2018-09-17T07:08:47.886Z,20.30
2018-09-17T07:11:22.717Z,20.50
2018-09-17T07:13:57.365Z,20.70
2018-09-17T07:16:32.169Z,20.90
2018-09-17T07:19:06.832Z,21.10
2018-09-17T07:21:41.589Z,21.30
2018-09-17T07:24:16.643Z,21.50
2018-09-17T07:26:51.353Z,21.70
2018-09-17T07:29:25.718Z,21.90
2018-09-17T07:32:00.296Z,22.10
2018-09-17T07:34:35.304Z,22.30
2018-09-17T07:37:09.947Z,22.40
2018-09-17T07:39:44.623Z,22.60
2018-09-17T07:42:19.024Z,22.80
2018-09-17T07:44:54.074Z,23.00
2018-09-17T07:47:28.208Z,23.10
2018-09-17T07:50:03.001Z,23.20
2018-09-17T07:52:37.516Z,23.40
2018-09-17T07:55:13.145Z,23.50
2018-09-17T07:57:48.059Z,23.60
2018-09-17T08:00:23.065Z,23.80
2018-09-17T08:02:57.427Z,23.90
2018-09-17T08:05:32.061Z,24.00
2018-09-17T08:08:07.505Z,24.10
2018-09-17T08:10:42.153Z,24.10
2018-09-17T08:13:16.749Z,24.20
2018-09-17T08:15:51.900Z,24.30
2018-09-17T08:18:26.302Z,24.30
2018-09-17T08:21:01.001Z,24.40
2018-09-17T08:23:35.801Z,24.50
2018-09-17T08:26:10.596Z,24.70
2018-09-17T08:28:45.220Z,24.70
2018-09-17T08:31:20.075Z,24.80
2018-09-17T08:33:54.596Z,24.90
2018-09-17T08:36:29.150Z,24.90
2018-09-17T08:39:07.860Z,24.90
2018-09-17T08:41:42.870Z,25.00
2018-09-17T08:44:17.396Z,25.10
2018-09-17T08:46:52.049Z,25.20
2018-09-17T08:49:26.683Z,25.30
2018-09-17T08:52:01.506Z,25.40
2018-09-17T08:54:41.912Z,25.50
2018-09-17T08:57:22.549Z,25.60
2018-09-17T09:00:03.528Z,25.60
2018-09-17T09:02:43.292Z,25.70
2018-09-17T09:05:24.020Z,25.80
2018-09-17T09:07:59.031Z,26.00
2018-09-17T09:10:39.619Z,26.10
2018-09-17T09:13:19.528Z,26.10
2018-09-17T09:15:54.139Z,26.20
2018-09-17T09:18:29.152Z,26.20
2018-09-17T09:21:03.840Z,26.30
2018-09-17T09:23:38.557Z,26.40
2018-09-17T09:26:13.260Z,26.60
2018-09-17T09:28:47.980Z,26.70
2018-09-17T09:31:22.624Z,26.90
2018-09-17T09:33:57.457Z,27.00
2018-09-17T09:36:32.218Z,27.10
2018-09-17T09:39:09.111Z,27.20
2018-09-17T09:41:43.647Z,27.40
2018-09-17T09:44:18.327Z,27.40
2018-09-17T09:46:53.125Z,27.50
2018-09-17T09:49:28.135Z,27.70
2018-09-17T09:52:02.388Z,27.90
2018-09-17T09:54:37.465Z,28.10
2018-09-17T09:57:11.757Z,28.20
2018-09-17T09:59:46.635Z,28.40
2018-09-17T10:02:26.682Z,28.50
2018-09-17T10:05:01.632Z,28.60
2018-09-17T10:07:36.214Z,28.70
2018-09-17T10:10:16.306Z,28.70
2018-09-17T10:12:56.849Z,28.80
2018-09-17T10:15:39.514Z,28.70
2018-09-17T10:18:19.671Z,28.60
2018-09-17T10:20:54.670Z,28.60
2018-09-17T10:23:28.958Z,28.50
2018-09-17T10:26:03.760Z,28.50
2018-09-17T10:28:38.492Z,28.50
2018-09-17T10:31:13.587Z,28.40
2018-09-17T10:33:47.628Z,28.50
2018-09-17T10:36:22.328Z,28.50
2018-09-17T10:38:56.926Z,28.30
2018-09-17T10:41:31.474Z,28.20
2018-09-17T10:44:06.213Z,28.00
2018-09-17T10:46:40.514Z,27.80
2018-09-17T10:49:15.227Z,27.60
2018-09-17T10:51:50.170Z,27.30
2018-09-17T10:54:24.701Z,27.10
2018-09-17T10:56:59.241Z,27.10
2018-09-17T10:59:34.416Z,27.00
2018-09-17T11:02:09.553Z,26.90
2018-09-17T11:04:44.121Z,26.80
2018-09-17T11:07:18.823Z,26.70
2018-09-17T11:09:54.509Z,26.50
2018-09-17T11:12:28.820Z,26.50
2018-09-17T11:15:03.556Z,26.40
2018-09-17T11:17:38.286Z,26.30
2018-09-17T11:20:13.196Z,26.20
2018-09-17T11:22:47.481Z,26.10
2018-09-17T11:25:23.013Z,26.00
2018-09-17T11:27:57.782Z,25.90
2018-09-17T11:30:32.459Z,25.80
2018-09-17T11:33:07.321Z,25.70
2018-09-17T11:35:41.808Z,25.70
2018-09-17T11:38:16.759Z,25.70
2018-09-17T11:40:51.320Z,25.70
2018-09-17T11:43:25.968Z,25.70
2018-09-17T11:46:00.572Z,25.70
2018-09-17T11:48:35.806Z,25.70
2018-09-17T11:51:10.112Z,25.60
2018-09-17T11:53:44.722Z,25.60
2018-09-17T11:56:19.500Z,25.60
2018-09-17T11:58:54.078Z,25.60
2018-09-17T12:01:34.366Z,25.60
2018-09-17T12:04:12.552Z,25.60
2018-09-17T12:06:52.820Z,25.60
2018-09-17T12:09:27.212Z,25.60
2018-09-17T12:12:01.948Z,25.60
2018-09-17T12:14:36.565Z,25.50
2018-09-17T12:17:11.385Z,25.50
2018-09-17T12:19:45.990Z,25.50
2018-09-17T12:22:20.635Z,25.40
2018-09-17T12:24:55.385Z,25.40
2018-09-17T12:27:29.958Z,25.40
2018-09-17T12:30:05.434Z,25.30
2018-09-17T12:32:41.124Z,25.30
2018-09-17T12:35:16.168Z,25.30
2018-09-17T12:37:50.950Z,25.30
2018-09-17T12:40:26.506Z,25.30
2018-09-17T12:43:01.336Z,25.30
2018-09-17T12:45:36.268Z,25.40
2018-09-17T12:48:10.877Z,25.40
2018-09-17T12:50:45.039Z,25.50
2018-09-17T12:53:20.024Z,25.50
2018-09-17T12:55:54.236Z,25.60
2018-09-17T12:58:29.149Z,25.60
2018-09-17T13:01:03.834Z,25.60
2018-09-17T13:03:38.574Z,25.60
2018-09-17T13:06:13.541Z,25.50
2018-09-17T13:08:47.919Z,25.50
2018-09-17T13:11:22.156Z,25.40
2018-09-17T13:13:56.726Z,25.30
2018-09-17T13:16:31.220Z,25.20
2018-09-17T13:19:07.551Z,25.10
2018-09-17T13:21:42.488Z,25.00
2018-09-17T13:24:17.061Z,25.00
2018-09-17T13:26:51.645Z,24.90
2018-09-17T13:29:27.044Z,24.90
2018-09-17T13:32:01.565Z,24.90
2018-09-17T13:34:36.174Z,24.90
2018-09-17T13:37:11.085Z,24.90
2018-09-17T13:39:45.364Z,24.80
2018-09-17T13:42:21.118Z,24.90
2018-09-17T13:44:55.741Z,24.80
2018-09-17T13:47:30.294Z,24.90
2018-09-17T13:50:05.635Z,24.90
2018-09-17T13:52:40.519Z,24.90
2018-09-17T13:55:15.427Z,24.90
2018-09-17T13:57:49.792Z,24.80
2018-09-17T14:00:24.405Z,24.80
2018-09-17T14:02:59.052Z,24.80
2018-09-17T14:05:33.840Z,24.80
2018-09-17T14:08:08.690Z,24.80
2018-09-17T14:10:43.528Z,24.70
2018-09-17T14:13:18.053Z,24.70
2018-09-17T14:15:58.195Z,24.70
2018-09-17T14:18:33.295Z,24.60
2018-09-17T14:21:08.087Z,24.60
2018-09-17T14:23:42.540Z,24.60
2018-09-17T14:26:17.474Z,24.60
2018-09-17T14:28:52.126Z,24.60
2018-09-17T14:31:32.767Z,24.70
2018-09-17T14:34:07.805Z,24.70
2018-09-17T14:36:42.437Z,24.70
2018-09-17T14:39:17.538Z,24.70
2018-09-17T14:41:51.841Z,24.70
2018-09-17T14:44:26.544Z,24.70
2018-09-17T14:47:01.111Z,24.70
2018-09-17T14:49:35.744Z,24.70
2018-09-17T14:52:10.899Z,24.70
2018-09-17T14:54:45.182Z,24.70
2018-09-17T14:57:19.856Z,24.70
2018-09-17T14:59:54.326Z,24.70
2018-09-17T15:02:29.030Z,24.70
2018-09-17T15:05:03.923Z,24.60
2018-09-17T15:07:38.867Z,24.60
2018-09-17T15:10:13.388Z,24.60
2018-09-17T15:12:48.209Z,24.60
2018-09-17T15:15:22.976Z,24.60
2018-09-17T15:17:57.587Z,24.50
2018-09-17T15:20:32.384Z,24.50
2018-09-17T15:23:07.247Z,24.50
2018-09-17T15:25:41.591Z,24.50
2018-09-17T15:28:16.329Z,24.50
2018-09-17T15:30:50.931Z,24.50
2018-09-17T15:33:25.643Z,24.50
2018-09-17T15:36:00.386Z,24.60
2018-09-17T15:38:35.364Z,24.50
2018-09-17T15:41:10.367Z,24.50
2018-09-17T15:43:45.409Z,24.50
2018-09-17T15:46:19.833Z,24.50
2018-09-17T15:48:54.440Z,24.40
2018-09-17T15:51:28.968Z,24.40
2018-09-17T15:54:03.797Z,24.40
2018-09-17T15:56:38.321Z,24.40
2018-09-17T15:59:12.677Z,24.40
2018-09-17T16:01:47.588Z,24.40
2018-09-17T16:04:22.236Z,24.30
2018-09-17T16:06:57.212Z,24.30
2018-09-17T16:09:31.685Z,24.30
2018-09-17T16:12:06.365Z,24.30
2018-09-17T16:14:41.161Z,24.30
2018-09-17T16:17:15.824Z,24.10
2018-09-17T16:19:50.349Z,24.10
2018-09-17T16:22:25.054Z,24.10
2018-09-17T16:24:59.739Z,24.10
2018-09-17T16:27:34.888Z,24.10
2018-09-17T16:30:10.292Z,24.00
2018-09-17T16:32:44.712Z,24.00
2018-09-17T16:35:19.625Z,24.00
2018-09-17T16:37:54.688Z,24.00
2018-09-17T16:40:28.872Z,23.90
2018-09-17T16:43:03.593Z,23.90
2018-09-17T16:45:38.134Z,23.90
2018-09-17T16:48:12.732Z,23.90
2018-09-17T16:50:47.298Z,23.80
2018-09-17T16:53:21.805Z,23.70
2018-09-17T16:55:57.918Z,23.70
2018-09-17T16:58:33.090Z,23.60
2018-09-17T17:01:07.662Z,23.50
2018-09-17T17:03:44.443Z,23.50
2018-09-17T17:06:18.909Z,23.40
2018-09-17T17:08:53.655Z,23.40
2018-09-17T17:11:28.152Z,23.30
2018-09-17T17:14:02.787Z,23.20
2018-09-17T17:16:37.583Z,23.10
2018-09-17T17:19:11.964Z,23.00
2018-09-17T17:21:46.740Z,22.90
2018-09-17T17:24:21.565Z,22.80
2018-09-17T17:26:55.996Z,22.70
2018-09-17T17:29:30.933Z,22.60
2018-09-17T17:32:05.183Z,22.50
2018-09-17T17:34:39.857Z,22.40
2018-09-17T17:37:14.704Z,22.30
2018-09-17T17:39:49.518Z,22.20
2018-09-17T17:42:23.949Z,22.10
2018-09-17T17:44:58.748Z,22.00
2018-09-17T17:47:33.357Z,21.90
2018-09-17T17:50:08.873Z,21.80
2018-09-17T17:52:43.677Z,21.70
2018-09-17T17:55:18.332Z,21.60
2018-09-17T17:57:52.924Z,21.50
2018-09-17T18:00:27.646Z,21.40
2018-09-17T18:03:02.193Z,21.30
2018-09-17T18:05:37.431Z,21.20
2018-09-17T18:08:12.687Z,21.10
2018-09-17T18:10:47.251Z,21.10
2018-09-17T18:13:21.547Z,21.00
2018-09-17T18:15:56.161Z,20.90
2018-09-17T18:18:31.093Z,20.90
2018-09-17T18:21:05.860Z,20.80
2018-09-17T18:26:20.659Z,20.60
2018-09-17T18:28:55.460Z,20.50
2018-09-17T18:31:30.452Z,20.50
2018-09-17T18:34:04.794Z,20.40
2018-09-17T18:36:39.453Z,20.40
2018-09-17T18:39:14.214Z,20.30
2018-09-17T18:41:48.589Z,20.30
2018-09-17T18:44:23.355Z,20.20
2018-09-17T18:46:57.975Z,20.10
2018-09-17T18:49:32.644Z,20.10
2018-09-17T18:52:07.003Z,20.00
2018-09-17T18:54:42.346Z,20.00
2018-09-17T18:57:17.578Z,20.00
2018-09-17T18:59:51.834Z,19.90
2018-09-17T19:02:26.591Z,19.80
2018-09-17T19:05:01.069Z,19.80
2018-09-17T19:07:35.788Z,19.70
2018-09-17T19:10:25.350Z,19.70
2018-09-17T19:13:00.201Z,19.60
2018-09-17T19:15:41.029Z,19.60
2018-09-17T19:18:17.309Z,19.60
2018-09-17T19:20:52.550Z,19.50
2018-09-17T19:23:32.961Z,19.40
2018-09-17T19:26:10.308Z,19.40
2018-09-17T19:28:51.380Z,19.40
2018-09-17T19:31:25.824Z,19.30
2018-09-17T19:34:00.585Z,19.30
2018-09-17T19:36:35.445Z,19.30
2018-09-17T19:39:16.480Z,19.20
2018-09-17T19:41:51.886Z,19.20
2018-09-17T19:44:26.504Z,19.10
2018-09-17T19:47:00.717Z,19.10
2018-09-17T19:49:35.773Z,19.10
2018-09-17T19:52:15.766Z,19.00
2018-09-17T19:54:50.904Z,19.00
2018-09-17T19:57:30.614Z,18.90
2018-09-17T20:00:06.121Z,18.90
2018-09-17T20:02:41.025Z,18.90
2018-09-17T20:05:21.020Z,18.80
2018-09-17T20:07:56.019Z,18.80
2018-09-17T20:10:30.535Z,18.80
2018-09-17T20:13:06.522Z,18.70
2018-09-17T20:15:40.785Z,18.70
2018-09-17T20:18:15.402Z,18.70
2018-09-17T20:20:49.855Z,18.60
2018-09-17T20:23:25.337Z,18.60
2018-09-17T20:26:01.411Z,18.60
2018-09-17T20:28:35.654Z,18.50
2018-09-17T20:31:11.273Z,18.50
2018-09-17T20:33:45.751Z,18.50
2018-09-17T20:36:20.796Z,18.50
2018-09-17T20:38:55.878Z,18.40
2018-09-17T20:41:30.352Z,18.40
2018-09-17T20:44:05.438Z,18.40
2018-09-17T20:46:40.531Z,18.40
2018-09-17T20:49:15.721Z,18.30
2018-09-17T20:51:50.680Z,18.30
2018-09-17T20:54:25.488Z,18.30
2018-09-17T20:57:00.394Z,18.20
2018-09-17T20:59:35.029Z,18.20
2018-09-17T21:02:09.615Z,18.20
2018-09-17T21:04:44.280Z,18.20
2018-09-17T21:07:19.666Z,18.10
2018-09-17T21:09:53.861Z,18.10
2018-09-17T21:12:28.550Z,18.10
2018-09-17T21:15:03.330Z,18.00
2018-09-17T21:17:37.890Z,18.00
2018-09-17T21:20:12.704Z,18.00
2018-09-17T21:22:47.317Z,18.00
2018-09-17T21:25:22.106Z,18.00
2018-09-17T21:27:58.054Z,17.90
2018-09-17T21:30:33.705Z,17.90
2018-09-17T21:33:08.220Z,17.90
2018-09-17T21:35:42.867Z,17.90
2018-09-17T21:38:17.674Z,17.90
2018-09-17T21:40:52.387Z,17.90
2018-09-17T21:43:27.004Z,17.80
2018-09-17T21:46:01.808Z,17.80
2018-09-17T21:48:36.482Z,17.80
2018-09-17T21:51:11.280Z,17.70
2018-09-17T21:53:45.989Z,17.70
2018-09-17T21:56:21.045Z,17.70
2018-09-17T21:58:55.957Z,17.80
2018-09-17T22:01:30.912Z,17.70
2018-09-17T22:04:05.504Z,17.70
2018-09-17T22:06:40.174Z,17.70
2018-09-17T22:09:14.887Z,17.60
2018-09-17T22:11:49.601Z,17.60
2018-09-17T22:14:24.293Z,17.60
2018-09-17T22:16:58.839Z,17.60
2018-09-17T22:19:33.681Z,17.50
2018-09-17T22:22:08.318Z,17.50
2018-09-17T22:24:42.949Z,17.50
2018-09-17T22:27:17.686Z,17.40
2018-09-17T22:29:52.596Z,17.40
2018-09-17T22:32:27.345Z,17.40
2018-09-17T22:35:02.295Z,17.30
2018-09-17T22:37:36.818Z,17.30
2018-09-17T22:40:11.555Z,17.30
2018-09-17T22:42:46.273Z,17.30
2018-09-17T22:45:20.921Z,17.20
2018-09-17T22:47:55.391Z,17.20
2018-09-17T22:50:30.013Z,17.20
2018-09-17T22:53:04.721Z,17.20
2018-09-17T22:55:39.321Z,17.20
2018-09-17T22:58:14.365Z,17.20
2018-09-17T23:00:48.686Z,17.10
2018-09-17T23:03:23.295Z,17.20
2018-09-17T23:05:57.868Z,17.10
2018-09-17T23:08:32.533Z,17.10
2018-09-17T23:11:07.230Z,17.00
2018-09-17T23:13:41.756Z,17.00
2018-09-17T23:16:16.548Z,17.00
2018-09-17T23:18:51.172Z,16.90
2018-09-17T23:21:25.892Z,16.90
2018-09-17T23:24:00.700Z,16.90
2018-09-17T23:26:35.266Z,16.90
2018-09-17T23:29:09.952Z,16.90
2018-09-17T23:31:44.683Z,16.80
2018-09-17T23:34:19.789Z,16.80
2018-09-17T23:36:54.014Z,16.80
2018-09-17T23:39:28.728Z,16.80
2018-09-17T23:42:03.389Z,16.70
2018-09-17T23:44:38.141Z,16.70
2018-09-17T23:47:12.985Z,16.70
2018-09-17T23:49:47.922Z,16.70
2018-09-17T23:52:22.324Z,16.60
2018-09-17T23:54:56.916Z,16.60
2018-09-17T23:57:31.644Z,16.60
